Time;durP1;ratioP1;P1;durP2;ratioP2;P2;SDS_P1;SDS_P2;PMS_P1;PMS_P2;Temp;Humidity;BMP_temperature;BMP_pressure;BME280_temperature;BME280_humidity;BME280_pressure;Samples;Min_cycle;Max_cycle;Signal;HPM_P1;HPM_P2
2022/12/08 00:00:50;;;;;;;;;;;28.20;61.50;;;;;;5084262;28;19916;-72
2022/12/08 00:03:17;;;;;;;;;;;28.30;57.40;;;;;;5076676;28;20336;-72
2022/12/08 00:11:14;;;;;;;;;;;28.70;60.20;;;;;;5082998;28;19919;-74
2022/12/08 00:13:41;;;;;;;;;;;28.70;57.40;;;;;;5082556;28;19970;-72
2022/12/08 00:16:08;;;;;;;;;;;28.60;60.40;;;;;;5074355;28;20022;-71
2022/12/08 00:18:35;;;;;;;;;;;28.70;60.30;;;;;;5082163;28;19927;-71
2022/12/08 00:21:02;;;;;;;;;;;28.80;62.90;;;;;;5086941;28;20142;-72
2022/12/08 00:23:29;;;;;;;;;;;28.90;61.90;;;;;;5084667;28;19912;-73
2022/12/08 00:25:55;;;;;;;;;;;29.20;63.50;;;;;;5081181;28;19968;-73
2022/12/08 00:28:22;;;;;;;;;;;29.40;61.10;;;;;;5081992;28;19916;-72
2022/12/08 00:30:49;;;;;;;;;;;29.60;60.20;;;;;;5088617;28;19912;-72
2022/12/08 00:33:16;;;;;;;;;;;29.80;59.80;;;;;;5086756;28;19912;-73
2022/12/08 00:35:42;;;;;;;;;;;29.90;58.90;;;;;;5085507;28;19924;-71
2022/12/08 00:38:09;;;;;;;;;;;29.80;58.40;;;;;;5074989;28;20038;-72
2022/12/08 00:40:36;;;;;;;;;;;29.80;58.80;;;;;;5082017;28;20426;-72
2022/12/08 00:43:02;;;;;;;;;;;30.00;59.70;;;;;;5091646;28;19916;-72
2022/12/08 00:45:29;;;;;;;;;;;29.90;55.50;;;;;;5084610;28;19916;-72
2022/12/08 00:47:56;;;;;;;;;;;29.80;56.20;;;;;;5084372;28;19913;-71
2022/12/08 00:50:22;;;;;;;;;;;29.80;59.00;;;;;;5080748;28;19920;-73
2022/12/08 00:52:49;;;;;;;;;;;30.10;59.40;;;;;;5081190;28;19993;-73
2022/12/08 00:55:16;;;;;;;;;;;30.10;58.10;;;;;;5081235;28;19912;-72
2022/12/08 00:57:42;;;;;;;;;;;30.20;57.50;;;;;;5086412;28;19912;-72
2022/12/08 01:00:09;;;;;;;;;;;30.30;55.70;;;;;;5086296;28;19924;-73
2022/12/08 01:02:36;;;;;;;;;;;30.30;54.10;;;;;;5087220;28;19912;-73
2022/12/08 01:05:03;;;;;;;;;;;30.20;54.80;;;;;;5085910;28;20373;-71
2022/12/08 01:07:29;;;;;;;;;;;30.00;54.40;;;;;;5077916;28;19916;-72
2022/12/08 01:09:56;;;;;;;;;;;30.20;56.10;;;;;;5087269;28;20272;-74
2022/12/08 01:12:23;;;;;;;;;;;30.30;54.00;;;;;;5083410;28;19959;-71
2022/12/08 01:14:50;;;;;;;;;;;30.30;57.40;;;;;;5074899;28;19917;-71
2022/12/08 01:17:17;;;;;;;;;;;30.40;56.10;;;;;;5078030;28;19916;-72
2022/12/08 01:19:44;;;;;;;;;;;30.70;55.20;;;;;;5079608;28;19920;-73
2022/12/08 01:22:10;;;;;;;;;;;30.60;54.30;;;;;;5085593;28;20014;-73
2022/12/08 01:24:37;;;;;;;;;;;30.80;53.60;;;;;;5084142;28;19924;-73
2022/12/08 01:27:04;;;;;;;;;;;31.00;52.70;;;;;;5073956;28;19996;-72
2022/12/08 01:29:30;;;;;;;;;;;31.00;51.00;;;;;;5071987;28;19962;-74
2022/12/08 01:31:57;;;;;;;;;;;30.70;52.10;;;;;;5074767;28;19928;-72
2022/12/08 01:34:24;;;;;;;;;;;30.70;52.10;;;;;;5075275;28;20345;-73
2022/12/08 01:36:51;;;;;;;;;;;30.90;51.70;;;;;;5074669;28;19919;-73
2022/12/08 01:39:18;;;;;;;;;;;31.10;54.40;;;;;;5070107;28;19946;-73
2022/12/08 01:41:46;;;;;;;;;;;31.50;55.90;;;;;;5073905;28;19923;-74
2022/12/08 01:44:13;;;;;;;;;;;31.80;50.70;;;;;;5070685;28;19986;-73
2022/12/08 01:46:44;;;;;;;;;;;31.50;48.90;;;;;;5073007;28;19915;-74
2022/12/08 01:49:10;;;;;;;;;;;31.30;49.50;;;;;;5072890;28;19912;-73
2022/12/08 01:52:00;;;;;;;;;;;31.10;52.50;;;;;;5082090;28;20339;-73
2022/12/08 01:54:28;;;;;;;;;;;31.20;53.00;;;;;;5073832;28;20313;-73
2022/12/08 01:57:00;;;;;;;;;;;31.50;51.00;;;;;;5091062;28;19963;-72
2022/12/08 01:59:29;;;;;;;;;;;31.70;51.20;;;;;;5089550;28;19927;-73
2022/12/08 02:01:56;;;;;;;;;;;31.90;51.10;;;;;;5075629;28;19930;-72
2022/12/08 02:04:23;;;;;;;;;;;32.00;50.20;;;;;;5087650;28;19927;-75
2022/12/08 02:06:50;;;;;;;;;;;32.30;48.40;;;;;;5074907;28;19952;-72
2022/12/08 02:09:18;;;;;;;;;;;32.40;51.40;;;;;;5073186;28;19918;-72
2022/12/08 02:11:45;;;;;;;;;;;32.50;50.10;;;;;;5075364;28;21734;-73
2022/12/08 02:14:13;;;;;;;;;;;32.60;49.60;;;;;;5076011;28;20374;-74
2022/12/08 02:16:40;;;;;;;;;;;32.60;51.10;;;;;;5085061;28;19916;-74
2022/12/08 02:19:07;;;;;;;;;;;32.70;50.80;;;;;;5072189;28;20349;-73
2022/12/08 02:21:39;;;;;;;;;;;32.70;51.00;;;;;;5071085;28;20374;-75
2022/12/08 02:24:14;;;;;;;;;;;32.90;50.90;;;;;;5077089;28;19925;-73
2022/12/08 02:26:56;;;;;;;;;;;33.00;48.50;;;;;;5074305;28;19939;-74
2022/12/08 02:29:23;;;;;;;;;;;33.00;48.40;;;;;;5080812;28;19924;-73
2022/12/08 02:31:59;;;;;;;;;;;33.10;49.60;;;;;;5082732;28;19916;-74
2022/12/08 02:34:32;;;;;;;;;;;33.00;47.40;;;;;;5074873;28;19916;-75
2022/12/08 02:37:07;;;;;;;;;;;33.00;48.50;;;;;;5087388;28;19920;-73
2022/12/08 02:39:41;;;;;;;;;;;33.00;45.50;;;;;;5088335;28;19967;-75
2022/12/08 02:42:08;;;;;;;;;;;32.80;45.00;;;;;;5078359;28;20324;-74
2022/12/08 02:44:35;;;;;;;;;;;32.70;48.20;;;;;;5077115;28;19916;-74
2022/12/08 02:47:06;;;;;;;;;;;32.70;46.10;;;;;;5080212;28;19916;-72
2022/12/08 02:49:33;;;;;;;;;;;32.60;46.90;;;;;;5106718;27;19920;-72
2022/12/08 02:52:07;;;;;;;;;;;32.60;48.20;;;;;;5091093;28;19962;-72
2022/12/08 02:54:34;;;;;;;;;;;32.40;60.50;;;;;;5073520;28;19942;-73
2022/12/08 02:57:19;;;;;;;;;;;32.00;61.90;;;;;;5071866;28;19947;-71
2022/12/08 03:00:04;;;;;;;;;;;31.40;63.10;;;;;;5079437;28;19920;-74
2022/12/08 03:02:48;;;;;;;;;;;30.70;63.90;;;;;;5074340;28;19977;-74
2022/12/08 03:05:27;;;;;;;;;;;30.20;64.90;;;;;;5071098;28;19912;-74
2022/12/08 03:08:09;;;;;;;;;;;30.00;63.20;;;;;;5069996;28;19958;-74
2022/12/08 03:10:35;;;;;;;;;;;30.10;64.20;;;;;;5079856;28;19935;-73
2022/12/08 03:13:09;;;;;;;;;;;30.00;63.90;;;;;;5069513;28;20320;-74
2022/12/08 03:15:36;;;;;;;;;;;29.90;65.30;;;;;;5074743;28;19919;-74
2022/12/08 03:18:04;;;;;;;;;;;29.70;64.40;;;;;;5072461;28;19927;-73
2022/12/08 03:20:33;;;;;;;;;;;29.60;65.90;;;;;;5073670;28;19924;-74
2022/12/08 03:23:00;;;;;;;;;;;29.40;65.90;;;;;;5072810;28;20015;-73
2022/12/08 03:25:30;;;;;;;;;;;29.10;67.80;;;;;;5081957;28;20355;-73
2022/12/08 03:27:57;;;;;;;;;;;29.00;68.10;;;;;;5083650;28;19957;-73
2022/12/08 03:30:23;;;;;;;;;;;28.90;67.30;;;;;;5069861;28;19920;-72
2022/12/08 03:33:16;;;;;;;;;;;28.90;66.20;;;;;;5084417;28;19912;-73
2022/12/08 03:35:43;;;;;;;;;;;28.70;67.70;;;;;;5071436;28;19928;-72
2022/12/08 03:38:14;;;;;;;;;;;28.50;68.10;;;;;;5073417;28;19916;-73
2022/12/08 03:40:41;;;;;;;;;;;28.40;67.70;;;;;;5085488;28;19931;-73
2022/12/08 03:43:08;;;;;;;;;;;28.10;68.00;;;;;;5073027;28;19928;-74
2022/12/08 03:45:35;;;;;;;;;;;28.00;67.90;;;;;;5069084;28;19923;-73
2022/12/08 03:48:02;;;;;;;;;;;27.90;68.40;;;;;;5089192;28;19912;-75
2022/12/08 03:50:29;;;;;;;;;;;27.80;68.90;;;;;;5071574;28;20378;-74
2022/12/08 03:52:55;;;;;;;;;;;27.70;69.30;;;;;;5074250;28;19912;-74
2022/12/08 03:55:22;;;;;;;;;;;27.70;71.00;;;;;;5069540;28;20302;-73
2022/12/08 03:57:49;;;;;;;;;;;27.80;70.10;;;;;;5081653;28;19919;-72
2022/12/08 04:00:16;;;;;;;;;;;27.70;68.80;;;;;;5078311;28;19928;-74
2022/12/08 04:02:43;;;;;;;;;;;27.90;68.50;;;;;;5073846;28;19919;-72
2022/12/08 04:05:09;;;;;;;;;;;27.90;68.70;;;;;;5075544;28;19916;-74
2022/12/08 04:07:36;;;;;;;;;;;27.70;68.00;;;;;;5075540;28;20394;-75
2022/12/08 04:10:03;;;;;;;;;;;27.50;68.70;;;;;;5076371;28;19912;-75
2022/12/08 04:12:30;;;;;;;;;;;27.60;69.10;;;;;;5078749;28;20389;-73
2022/12/08 04:14:56;;;;;;;;;;;27.50;68.80;;;;;;5083193;28;20416;-73
2022/12/08 04:17:23;;;;;;;;;;;27.40;68.60;;;;;;5086395;28;19916;-72
2022/12/08 04:19:50;;;;;;;;;;;27.20;69.50;;;;;;5091409;28;19951;-71
2022/12/08 04:22:16;;;;;;;;;;;27.10;70.00;;;;;;5075103;28;20535;-71
2022/12/08 04:24:43;;;;;;;;;;;26.90;69.70;;;;;;5091739;28;19991;-71
2022/12/08 04:27:10;;;;;;;;;;;26.90;70.00;;;;;;5088475;28;20622;-72
2022/12/08 04:29:36;;;;;;;;;;;26.80;69.80;;;;;;5081639;28;20008;-72
2022/12/08 04:32:03;;;;;;;;;;;26.70;69.70;;;;;;5084309;28;19998;-73
2022/12/08 04:34:30;;;;;;;;;;;26.80;70.50;;;;;;5089204;28;19919;-71
2022/12/08 04:36:57;;;;;;;;;;;26.80;70.10;;;;;;5086360;28;20035;-71
2022/12/08 04:39:23;;;;;;;;;;;26.90;70.00;;;;;;5086795;28;19935;-75
2022/12/08 04:41:50;;;;;;;;;;;26.70;69.60;;;;;;5074586;28;19923;-75
2022/12/08 04:44:17;;;;;;;;;;;26.60;69.50;;;;;;5086658;28;19912;-73
2022/12/08 04:46:43;;;;;;;;;;;26.40;69.70;;;;;;5082516;28;19927;-72
2022/12/08 04:49:10;;;;;;;;;;;26.30;69.60;;;;;;5088857;28;19916;-75
2022/12/08 04:51:37;;;;;;;;;;;26.30;70.00;;;;;;5075025;28;19920;-74
2022/12/08 04:54:03;;;;;;;;;;;26.20;69.40;;;;;;5083800;28;20014;-73
2022/12/08 04:56:30;;;;;;;;;;;26.30;69.50;;;;;;5085972;28;19927;-72
2022/12/08 04:58:57;;;;;;;;;;;26.30;69.20;;;;;;5089257;28;19952;-73
2022/12/08 05:01:24;;;;;;;;;;;26.30;69.50;;;;;;5079591;28;19924;-73
2022/12/08 05:03:50;;;;;;;;;;;26.30;68.90;;;;;;5086384;28;19959;-75
2022/12/08 05:06:17;;;;;;;;;;;26.30;69.30;;;;;;5083282;28;19912;-73
2022/12/08 05:08:44;;;;;;;;;;;26.40;69.20;;;;;;5073401;28;19916;-76
2022/12/08 05:11:11;;;;;;;;;;;26.50;68.90;;;;;;5085895;28;19963;-74
2022/12/08 05:13:38;;;;;;;;;;;26.30;68.80;;;;;;5079329;28;19940;-74
2022/12/08 05:16:06;;;;;;;;;;;26.10;69.20;;;;;;5080465;28;19923;-71
2022/12/08 05:18:33;;;;;;;;;;;25.70;69.10;;;;;;5081498;28;19916;-73
2022/12/08 05:20:59;;;;;;;;;;;25.50;69.30;;;;;;5088897;28;19916;-72
2022/12/08 05:23:26;;;;;;;;;;;25.50;69.70;;;;;;5080936;28;19921;-75
2022/12/08 05:25:53;;;;;;;;;;;25.70;69.50;;;;;;5087341;28;19916;-74
2022/12/08 05:28:20;;;;;;;;;;;25.90;69.50;;;;;;5091207;28;20019;-73
2022/12/08 05:30:47;;;;;;;;;;;25.80;68.40;;;;;;5081668;28;20317;-73
2022/12/08 05:33:13;;;;;;;;;;;25.90;67.90;;;;;;5072793;28;20398;-72
2022/12/08 05:35:40;;;;;;;;;;;25.80;69.40;;;;;;5075099;28;19925;-73
2022/12/08 05:38:07;;;;;;;;;;;25.80;68.60;;;;;;5083359;28;19928;-72
2022/12/08 05:40:34;;;;;;;;;;;25.70;68.10;;;;;;5085814;28;19928;-71
2022/12/08 05:43:00;;;;;;;;;;;25.40;68.00;;;;;;5090592;28;19913;-72
2022/12/08 05:45:27;;;;;;;;;;;25.20;68.20;;;;;;5083657;28;20365;-73
2022/12/08 05:47:54;;;;;;;;;;;25.30;69.60;;;;;;5075216;28;20392;-73
2022/12/08 05:50:21;;;;;;;;;;;25.30;69.10;;;;;;5104503;27;19912;-72
2022/12/08 05:52:47;;;;;;;;;;;25.20;69.30;;;;;;5077358;28;19935;-73
2022/12/08 05:55:14;;;;;;;;;;;25.20;68.70;;;;;;5088580;28;20233;-73
2022/12/08 05:57:41;;;;;;;;;;;25.10;68.10;;;;;;5089852;28;20255;-73
2022/12/08 06:00:08;;;;;;;;;;;24.90;68.70;;;;;;5081159;28;19992;-74
2022/12/08 06:02:34;;;;;;;;;;;24.80;69.30;;;;;;5087539;28;19920;-73
2022/12/08 06:05:01;;;;;;;;;;;24.80;68.50;;;;;;5083890;28;20336;-72
2022/12/08 06:07:28;;;;;;;;;;;24.60;68.90;;;;;;5089990;28;19923;-73
2022/12/08 06:09:54;;;;;;;;;;;24.50;69.40;;;;;;5086783;28;19912;-73
2022/12/08 06:12:21;;;;;;;;;;;24.60;69.30;;;;;;5088533;28;19912;-72
2022/12/08 06:14:48;;;;;;;;;;;24.50;69.80;;;;;;5070094;28;20278;-75
2022/12/08 06:17:15;;;;;;;;;;;24.50;69.40;;;;;;5072892;28;19966;-74
2022/12/08 06:19:41;;;;;;;;;;;24.40;69.80;;;;;;5070558;28;19931;-73
2022/12/08 06:22:08;;;;;;;;;;;24.20;69.60;;;;;;5076790;28;20428;-74
2022/12/08 06:24:35;;;;;;;;;;;24.10;70.10;;;;;;5077966;28;19923;-71
2022/12/08 06:27:01;;;;;;;;;;;24.00;70.80;;;;;;5091381;28;19919;-72
2022/12/08 06:29:28;;;;;;;;;;;24.00;70.00;;;;;;5088270;28;19952;-72
2022/12/08 06:31:55;;;;;;;;;;;23.90;70.30;;;;;;5084402;28;19954;-73
2022/12/08 06:34:21;;;;;;;;;;;23.80;70.30;;;;;;5077854;28;20286;-72
2022/12/08 06:36:48;;;;;;;;;;;23.70;70.90;;;;;;5083402;28;20328;-74
2022/12/08 06:39:15;;;;;;;;;;;23.60;71.30;;;;;;5085132;28;19920;-73
2022/12/08 06:44:26;;;;;;;;;;;23.30;72.60;;;;;;5086759;28;20289;-74
2022/12/08 06:46:52;;;;;;;;;;;23.50;72.10;;;;;;5090474;28;19915;-73
2022/12/08 06:49:19;;;;;;;;;;;23.60;72.10;;;;;;5080981;28;19924;-70
2022/12/08 06:51:46;;;;;;;;;;;23.70;72.10;;;;;;5088689;28;19916;-74
2022/12/08 06:54:13;;;;;;;;;;;23.70;71.90;;;;;;5077581;28;19912;-74
2022/12/08 06:56:39;;;;;;;;;;;23.60;71.30;;;;;;5072283;28;19940;-72
2022/12/08 06:59:06;;;;;;;;;;;23.50;71.40;;;;;;5078378;28;20022;-73
2022/12/08 07:01:33;;;;;;;;;;;23.20;71.50;;;;;;5073429;28;19917;-73
2022/12/08 07:03:59;;;;;;;;;;;23.10;72.00;;;;;;5079565;28;20370;-75
2022/12/08 07:06:26;;;;;;;;;;;23.10;72.20;;;;;;5082416;28;19989;-73
2022/12/08 07:08:53;;;;;;;;;;;23.10;72.20;;;;;;5087833;28;19916;-74
2022/12/08 07:11:19;;;;;;;;;;;23.00;72.20;;;;;;5076670;28;20010;-72
2022/12/08 07:13:46;;;;;;;;;;;22.90;72.10;;;;;;5078471;28;19923;-72
2022/12/08 07:16:13;;;;;;;;;;;22.70;72.50;;;;;;5072978;28;19916;-72
2022/12/08 07:18:41;;;;;;;;;;;22.60;72.30;;;;;;5088457;28;19920;-73
2022/12/08 07:21:09;;;;;;;;;;;22.40;72.90;;;;;;5081371;28;20297;-74
2022/12/08 07:23:37;;;;;;;;;;;22.40;72.80;;;;;;5085989;28;20037;-73
2022/12/08 07:26:05;;;;;;;;;;;22.40;72.90;;;;;;5073054;28;19928;-74
2022/12/08 07:28:32;;;;;;;;;;;22.30;73.00;;;;;;5086208;28;19916;-72
2022/12/08 07:30:59;;;;;;;;;;;22.20;73.20;;;;;;5073230;28;19923;-71
2022/12/08 07:33:26;;;;;;;;;;;22.10;73.40;;;;;;5074136;28;19918;-72
2022/12/08 07:35:55;;;;;;;;;;;22.10;73.60;;;;;;5080146;28;20348;-73
2022/12/08 07:38:22;;;;;;;;;;;22.10;73.10;;;;;;5092625;28;19923;-75
2022/12/08 07:40:49;;;;;;;;;;;22.00;73.40;;;;;;5086034;28;19913;-72
2022/12/08 07:43:16;;;;;;;;;;;22.00;73.70;;;;;;5078252;28;19919;-73
2022/12/08 07:45:42;;;;;;;;;;;21.90;73.70;;;;;;5080421;28;19985;-73
2022/12/08 07:48:09;;;;;;;;;;;21.80;73.30;;;;;;5089085;28;20343;-73
2022/12/08 07:50:36;;;;;;;;;;;21.60;73.30;;;;;;5083873;28;20393;-71
2022/12/08 07:53:03;;;;;;;;;;;21.60;73.70;;;;;;5073787;28;19923;-73
2022/12/08 07:55:29;;;;;;;;;;;21.60;74.00;;;;;;5081113;28;19923;-75
2022/12/08 07:57:56;;;;;;;;;;;21.50;73.70;;;;;;5085865;28;20008;-74
2022/12/08 08:00:23;;;;;;;;;;;21.40;73.40;;;;;;5082203;28;20332;-74
2022/12/08 08:02:49;;;;;;;;;;;21.30;73.80;;;;;;5082205;28;19913;-73
2022/12/08 08:05:16;;;;;;;;;;;21.20;73.80;;;;;;5073208;28;19917;-72
2022/12/08 08:07:45;;;;;;;;;;;21.00;73.80;;;;;;5073809;28;19973;-73
2022/12/08 08:10:12;;;;;;;;;;;20.80;74.50;;;;;;5083782;28;19923;-73
2022/12/08 08:12:39;;;;;;;;;;;20.70;75.10;;;;;;5073216;28;19912;-73
2022/12/08 08:15:07;;;;;;;;;;;20.60;75.30;;;;;;5077783;28;20003;-73
2022/12/08 08:17:34;;;;;;;;;;;20.50;75.70;;;;;;5077387;28;19922;-76
2022/12/08 08:20:01;;;;;;;;;;;20.40;76.20;;;;;;5084065;28;19971;-73
2022/12/08 08:22:28;;;;;;;;;;;20.30;76.60;;;;;;5091824;28;19965;-73
2022/12/08 08:24:54;;;;;;;;;;;20.30;76.80;;;;;;5078311;28;19924;-72
2022/12/08 08:27:21;;;;;;;;;;;20.20;76.90;;;;;;5090460;28;19933;-72
2022/12/08 08:29:48;;;;;;;;;;;20.10;76.90;;;;;;5075783;28;20424;-72
2022/12/08 08:32:15;;;;;;;;;;;20.00;76.60;;;;;;5080132;28;19916;-73
2022/12/08 08:34:41;;;;;;;;;;;20.00;75.90;;;;;;5089026;28;20235;-72
2022/12/08 08:37:08;;;;;;;;;;;20.00;75.90;;;;;;5073521;28;20439;-72
2022/12/08 08:39:35;;;;;;;;;;;19.90;75.90;;;;;;5075984;28;19935;-72
2022/12/08 08:42:02;;;;;;;;;;;19.80;76.20;;;;;;5080207;28;20355;-72
2022/12/08 08:44:28;;;;;;;;;;;19.70;76.40;;;;;;5074224;28;19909;-74
2022/12/08 08:46:55;;;;;;;;;;;19.60;77.00;;;;;;5077947;28;19965;-74
2022/12/08 08:49:22;;;;;;;;;;;19.50;77.00;;;;;;5088713;28;19912;-71
2022/12/08 08:51:49;;;;;;;;;;;19.40;77.20;;;;;;5081628;28;19916;-73
2022/12/08 08:54:15;;;;;;;;;;;19.30;77.10;;;;;;5086143;28;19917;-72
2022/12/08 08:56:42;;;;;;;;;;;19.30;77.20;;;;;;5086730;28;19927;-72
2022/12/08 08:59:09;;;;;;;;;;;19.20;77.60;;;;;;5076092;28;19920;-72
2022/12/08 09:01:36;;;;;;;;;;;19.20;77.30;;;;;;5087736;28;19912;-71
2022/12/08 09:04:03;;;;;;;;;;;19.10;77.50;;;;;;5087919;28;19923;-73
2022/12/08 09:06:29;;;;;;;;;;;19.10;77.80;;;;;;5089570;28;19912;-73
2022/12/08 09:08:56;;;;;;;;;;;19.00;78.10;;;;;;5093760;28;19908;-73
2022/12/08 09:11:23;;;;;;;;;;;18.90;78.40;;;;;;5088013;28;20427;-74
2022/12/08 09:13:51;;;;;;;;;;;18.80;78.60;;;;;;5090222;28;20381;-73
2022/12/08 09:16:18;;;;;;;;;;;18.80;78.90;;;;;;5075475;28;20697;-73
2022/12/08 09:18:45;;;;;;;;;;;18.80;79.20;;;;;;5083735;28;19912;-73
2022/12/08 09:21:19;;;;;;;;;;;18.70;79.10;;;;;;5087110;28;19916;-74
2022/12/08 09:23:45;;;;;;;;;;;18.70;79.30;;;;;;5073336;28;20339;-72
2022/12/08 09:26:12;;;;;;;;;;;18.70;79.80;;;;;;5089629;28;19920;-73
2022/12/08 09:28:39;;;;;;;;;;;18.70;80.20;;;;;;5085288;28;19923;-73
2022/12/08 09:31:05;;;;;;;;;;;18.60;80.10;;;;;;5083094;28;19921;-72
2022/12/08 09:33:32;;;;;;;;;;;18.60;80.30;;;;;;5088023;28;20301;-73
2022/12/08 09:36:02;;;;;;;;;;;18.60;80.20;;;;;;5087981;28;20006;-74
2022/12/08 09:38:29;;;;;;;;;;;18.50;80.50;;;;;;5088843;28;20376;-73
2022/12/08 09:40:56;;;;;;;;;;;18.50;80.20;;;;;;5088776;28;19955;-73
2022/12/08 09:43:38;;;;;;;;;;;18.60;80.30;;;;;;5092309;28;19912;-73
2022/12/08 09:46:07;;;;;;;;;;;18.60;80.70;;;;;;5077301;28;20034;-74
2022/12/08 09:48:37;;;;;;;;;;;18.70;82.20;;;;;;5076201;28;19973;-73
2022/12/08 09:51:04;;;;;;;;;;;19.10;80.90;;;;;;5077414;28;19916;-73
2022/12/08 09:53:50;;;;;;;;;;;19.50;79.50;;;;;;5084487;28;19919;-71
2022/12/08 09:56:23;;;;;;;;;;;19.70;78.80;;;;;;5085068;28;19916;-74
2022/12/08 09:58:52;;;;;;;;;;;19.70;78.90;;;;;;5078751;28;20459;-71
2022/12/08 10:01:20;;;;;;;;;;;19.80;78.80;;;;;;5087787;28;19912;-71
2022/12/08 10:03:47;;;;;;;;;;;19.90;78.80;;;;;;5089913;28;19912;-71
2022/12/08 10:06:16;;;;;;;;;;;20.00;78.20;;;;;;5075902;28;19990;-71
2022/12/08 10:09:03;;;;;;;;;;;20.20;77.70;;;;;;5089074;28;20346;-70
2022/12/08 10:11:52;;;;;;;;;;;20.30;78.00;;;;;;5074347;28;20347;-73
2022/12/08 10:14:34;;;;;;;;;;;20.30;77.80;;;;;;5071971;28;19934;-74
2022/12/08 10:17:05;;;;;;;;;;;20.40;77.70;;;;;;5073323;28;19923;-73
2022/12/08 10:19:33;;;;;;;;;;;20.40;77.50;;;;;;5076520;28;20404;-73
2022/12/08 10:22:00;;;;;;;;;;;20.50;77.50;;;;;;5086174;28;20393;-72
2022/12/08 10:24:40;;;;;;;;;;;20.50;77.30;;;;;;5077459;28;19955;-74
2022/12/08 10:27:10;;;;;;;;;;;20.50;77.50;;;;;;5090931;28;20636;-74
2022/12/08 10:29:37;;;;;;;;;;;20.50;77.90;;;;;;5088888;28;19928;-74
2022/12/08 10:32:18;;;;;;;;;;;20.50;77.90;;;;;;5074421;28;19970;-73
2022/12/08 10:35:00;;;;;;;;;;;20.50;78.10;;;;;;5076772;28;19916;-73
2022/12/08 10:37:26;;;;;;;;;;;20.40;78.30;;;;;;5076326;28;20424;-77
2022/12/08 10:40:02;;;;;;;;;;;20.30;78.40;;;;;;5077131;28;19920;-73
2022/12/08 10:42:33;;;;;;;;;;;20.30;78.30;;;;;;5080874;28;19919;-76
2022/12/08 10:45:09;;;;;;;;;;;20.20;78.60;;;;;;5080607;28;19923;-75
2022/12/08 10:47:39;;;;;;;;;;;19.90;79.20;;;;;;5079093;28;19966;-74
2022/12/08 10:50:23;;;;;;;;;;;19.70;79.90;;;;;;5075928;28;20006;-75
2022/12/08 10:53:00;;;;;;;;;;;19.60;80.40;;;;;;5090000;28;20010;-73
2022/12/08 10:55:28;;;;;;;;;;;19.40;80.80;;;;;;5078975;28;19913;-73
2022/12/08 10:57:55;;;;;;;;;;;19.30;81.30;;;;;;5089547;28;19991;-73
2022/12/08 11:00:24;;;;;;;;;;;19.20;81.30;;;;;;5081123;28;19957;-73
2022/12/08 11:02:53;;;;;;;;;;;19.20;81.60;;;;;;5086991;28;20282;-73
2022/12/08 11:05:21;;;;;;;;;;;19.10;81.80;;;;;;5079705;28;19944;-72
2022/12/08 11:07:53;;;;;;;;;;;19.10;81.90;;;;;;5079288;28;20274;-72
2022/12/08 11:10:24;;;;;;;;;;;19.00;81.90;;;;;;5071689;28;19916;-71
2022/12/08 11:12:50;;;;;;;;;;;19.00;82.20;;;;;;5086309;28;19912;-73
2022/12/08 11:15:17;;;;;;;;;;;18.90;81.80;;;;;;5074468;28;19932;-75
2022/12/08 11:17:46;;;;;;;;;;;18.90;82.20;;;;;;5076902;28;19917;-74
2022/12/08 11:20:13;;;;;;;;;;;18.90;82.50;;;;;;5077402;28;19920;-74
2022/12/08 11:22:41;;;;;;;;;;;18.80;82.70;;;;;;5083751;28;19965;-73
2022/12/08 11:25:10;;;;;;;;;;;18.80;82.90;;;;;;5081621;28;19908;-74
2022/12/08 11:27:39;;;;;;;;;;;18.80;82.80;;;;;;5090537;28;19912;-73
2022/12/08 11:30:12;;;;;;;;;;;18.80;83.30;;;;;;5084661;28;19976;-74
2022/12/08 11:32:41;;;;;;;;;;;18.70;83.30;;;;;;5071643;28;19920;-75
2022/12/08 11:35:09;;;;;;;;;;;18.70;83.40;;;;;;5081873;28;19928;-75
2022/12/08 11:37:40;;;;;;;;;;;18.70;83.50;;;;;;5090644;28;19933;-74
2022/12/08 11:40:14;;;;;;;;;;;18.70;83.80;;;;;;5077530;28;19920;-77
2022/12/08 11:42:55;;;;;;;;;;;18.60;83.90;;;;;;5086565;28;19916;-75
2022/12/08 11:45:27;;;;;;;;;;;18.60;84.20;;;;;;5085380;28;19913;-76
2022/12/08 11:47:57;;;;;;;;;;;18.60;84.40;;;;;;5114900;28;19926;-75
2022/12/08 11:50:26;;;;;;;;;;;18.60;84.60;;;;;;5083033;28;19946;-73
2022/12/08 11:52:53;;;;;;;;;;;18.60;84.70;;;;;;5070681;28;20011;-75
2022/12/08 11:55:31;;;;;;;;;;;18.60;84.70;;;;;;5079498;28;19916;-74
2022/12/08 11:58:01;;;;;;;;;;;18.50;84.90;;;;;;5075895;28;19913;-75
2022/12/08 12:00:28;;;;;;;;;;;18.50;84.90;;;;;;5072572;28;19921;-75
2022/12/08 12:03:03;;;;;;;;;;;18.50;84.80;;;;;;5071511;28;20286;-75
2022/12/08 12:05:52;;;;;;;;;;;18.50;84.90;;;;;;5073357;28;19912;-75
2022/12/08 12:08:39;;;;;;;;;;;18.50;84.90;;;;;;5073833;28;19913;-74
2022/12/08 12:14:27;;;;;;;;;;;18.50;84.90;;;;;;5084860;28;19919;-73
2022/12/08 12:16:58;;;;;;;;;;;18.50;85.20;;;;;;5078471;28;20007;-76
2022/12/08 12:19:26;;;;;;;;;;;18.40;85.40;;;;;;5087404;28;19928;-74
2022/12/08 12:21:56;;;;;;;;;;;18.40;85.40;;;;;;5078980;28;19990;-75
2022/12/08 12:24:25;;;;;;;;;;;18.30;85.50;;;;;;5074173;28;20457;-74
2022/12/08 12:26:59;;;;;;;;;;;18.30;86.40;;;;;;5091523;28;19919;-73
2022/12/08 12:29:28;;;;;;;;;;;18.30;86.00;;;;;;5082199;28;20216;-74
2022/12/08 12:31:57;;;;;;;;;;;18.20;86.30;;;;;;5067748;28;19920;-73
2022/12/08 12:34:25;;;;;;;;;;;18.20;86.10;;;;;;5084159;28;19924;-74
2022/12/08 12:36:51;;;;;;;;;;;18.10;86.30;;;;;;5083060;28;19927;-72
2022/12/08 12:39:20;;;;;;;;;;;18.10;86.60;;;;;;5081109;28;20361;-74
2022/12/08 12:41:50;;;;;;;;;;;18.00;86.30;;;;;;5081953;28;20057;-73
2022/12/08 12:44:21;;;;;;;;;;;18.00;86.80;;;;;;5088425;28;19912;-74
2022/12/08 12:46:48;;;;;;;;;;;17.90;86.70;;;;;;5079718;28;20275;-76
2022/12/08 12:49:33;;;;;;;;;;;17.90;86.90;;;;;;5073409;28;20434;-75
2022/12/08 12:51:59;;;;;;;;;;;17.80;87.00;;;;;;5075901;28;19912;-75
2022/12/08 12:54:28;;;;;;;;;;;17.80;87.30;;;;;;5087469;28;19916;-75
2022/12/08 12:57:12;;;;;;;;;;;17.80;87.70;;;;;;5089906;28;20015;-76
2022/12/08 12:59:43;;;;;;;;;;;17.80;87.90;;;;;;5074956;28;19924;-76
2022/12/08 13:02:25;;;;;;;;;;;17.80;88.00;;;;;;5077913;28;19944;-75
2022/12/08 13:04:54;;;;;;;;;;;17.80;88.10;;;;;;5083325;28;19912;-74
2022/12/08 13:07:32;;;;;;;;;;;17.80;88.30;;;;;;5088702;28;19916;-76
2022/12/08 13:10:08;;;;;;;;;;;17.80;88.30;;;;;;5081112;28;19920;-75
2022/12/08 13:12:34;;;;;;;;;;;17.70;88.20;;;;;;5092417;28;19950;-73
2022/12/08 13:15:03;;;;;;;;;;;17.70;88.30;;;;;;5072967;28;20374;-75
2022/12/08 13:17:32;;;;;;;;;;;17.70;88.40;;;;;;5079795;28;20015;-74
2022/12/08 13:20:00;;;;;;;;;;;17.60;88.70;;;;;;5086871;28;19959;-74
2022/12/08 13:22:45;;;;;;;;;;;17.60;88.90;;;;;;5087770;28;20366;-74
2022/12/08 13:25:38;;;;;;;;;;;17.60;88.70;;;;;;5090457;28;19951;-73
2022/12/08 13:28:22;;;;;;;;;;;17.60;88.40;;;;;;5072271;28;19909;-74
2022/12/08 13:30:52;;;;;;;;;;;17.50;88.60;;;;;;5084236;28;19951;-72
2022/12/08 13:33:22;;;;;;;;;;;17.50;88.70;;;;;;5082046;28;19912;-74
2022/12/08 13:36:01;;;;;;;;;;;17.40;88.90;;;;;;5082555;28;19927;-74
2022/12/08 13:38:30;;;;;;;;;;;17.40;89.20;;;;;;5093181;28;19947;-73
2022/12/08 13:41:00;;;;;;;;;;;17.30;89.30;;;;;;5091401;28;19975;-74
2022/12/08 13:43:56;;;;;;;;;;;17.20;89.40;;;;;;5090232;28;20278;-74
2022/12/08 13:46:30;;;;;;;;;;;17.20;89.80;;;;;;5081647;28;19965;-73
2022/12/08 13:48:58;;;;;;;;;;;17.10;89.80;;;;;;5081536;28;19920;-72
2022/12/08 13:51:33;;;;;;;;;;;17.10;90.00;;;;;;5076972;28;19916;-74
2022/12/08 13:54:07;;;;;;;;;;;17.10;90.10;;;;;;5084916;28;19916;-72
2022/12/08 13:56:38;;;;;;;;;;;17.10;89.30;;;;;;5084888;28;20374;-73
2022/12/08 13:59:09;;;;;;;;;;;17.10;89.50;;;;;;5078473;28;19920;-74
2022/12/08 14:01:41;;;;;;;;;;;17.10;89.40;;;;;;5081421;28;19916;-74
2022/12/08 14:04:13;;;;;;;;;;;17.10;89.60;;;;;;5085554;28;19989;-74
2022/12/08 14:06:42;;;;;;;;;;;17.10;89.50;;;;;;5090210;28;19916;-73
2022/12/08 14:09:14;;;;;;;;;;;17.00;89.90;;;;;;5092661;28;19908;-73
2022/12/08 14:11:43;;;;;;;;;;;17.00;90.00;;;;;;5071863;28;19952;-72
2022/12/08 14:14:26;;;;;;;;;;;16.90;90.00;;;;;;5078189;28;20301;-73
2022/12/08 14:16:55;;;;;;;;;;;16.90;90.00;;;;;;5076123;28;20049;-73
2022/12/08 14:19:23;;;;;;;;;;;16.90;90.00;;;;;;5089248;28;19973;-74
2022/12/08 14:21:56;;;;;;;;;;;16.90;90.00;;;;;;5077673;28;19915;-75
2022/12/08 14:24:23;;;;;;;;;;;16.80;90.10;;;;;;5073474;28;20363;-75
2022/12/08 14:26:54;;;;;;;;;;;16.80;90.10;;;;;;5080838;28;19999;-76
2022/12/08 14:29:32;;;;;;;;;;;16.80;90.10;;;;;;5084342;28;19935;-75
2022/12/08 14:31:59;;;;;;;;;;;16.80;90.10;;;;;;5084371;28;20354;-75
2022/12/08 14:34:25;;;;;;;;;;;16.70;90.10;;;;;;5090831;28;19911;-75
2022/12/08 14:36:52;;;;;;;;;;;16.70;90.10;;;;;;5082745;28;19926;-69
2022/12/08 14:39:19;;;;;;;;;;;16.70;90.10;;;;;;5074919;28;19974;-73